首页
METAR-TAF:

METAR-TAF

机场 :

埃德蒙顿国际机场

埃德蒙顿, 艾伯塔, 加拿大

纬度: 53-18N, 经度: 113-35W, 海拔: 715米

当前天气观测

该预报发布于34分钟前的20:00 UTC
风速24节,风向西转西北,有时为31节阵风
温度 3°C
湿度 41%
气压 1008 hPa
能見度: 32.2公里
散云层高于5000英尺
多云层高于25000英尺

METAR: CYEG 072000Z 29024G31KT 20SM SCT050 BKN250 03/M09 A2977 RMK CU4CI2 VIRGA PTCHS SLP122

时间: 14:34 (20:34 UTC)

预报

该预报发布于2小时和54分钟前的17:40 UTC
预报有效从07日的 18点(UTC)到 08日的 18点(UTC)
风速18节,风向西转西北,有时为28节阵风
能見度: 10公里
少量云层高于7000英尺
散云层高于15000英尺
多云层高于25000英尺
从 08日的 0400点(UTC)
风速12节,风向西转西北
能見度: 10公里
散云层高于6000英尺

TAF: CYEG 071740Z 0718/0818 30018G28KT P6SM FEW070 SCT150 BKN250 FM080400 30012KT P6SM SCT060 RMK NXT FCST BY 072100Z

超过4000个机场的气象观测和天气预报(METAR&TAF报告)。

可查询的气象台以黄色和红色小点在地图上表示。

将鼠标移到小点上方,可查看气象台名称。

然后点击查看天气观测和预报。

如需切换地图:点击带黑十字的绿色按钮放大地图;点击带横线的绿色按钮缩小地图;或者点击绿色箭头查看邻近地区的地图。


METAR-TAF: